createdAt,value
2023-04-20T00:00:06.588Z,11.60
2023-04-20T00:01:06.656Z,11.70
2023-04-20T00:02:06.613Z,12.20
2023-04-20T00:03:06.676Z,11.90
2023-04-20T00:04:06.561Z,14.00
2023-04-20T00:05:06.646Z,13.50
2023-04-20T00:06:06.523Z,11.60
2023-04-20T00:07:06.526Z,13.10
2023-04-20T00:08:06.506Z,13.00
2023-04-20T00:09:06.506Z,12.50
2023-04-20T00:10:06.472Z,13.80
2023-04-20T00:11:06.516Z,12.90
2023-04-20T00:12:06.457Z,12.00
2023-04-20T00:13:06.466Z,14.50
2023-04-20T00:14:06.432Z,11.90
2023-04-20T00:15:06.500Z,11.70
2023-04-20T00:16:06.419Z,12.90
2023-04-20T00:17:06.569Z,11.60
2023-04-20T00:18:06.431Z,13.20
2023-04-20T00:19:06.403Z,12.30
2023-04-20T00:20:06.383Z,12.80
2023-04-20T00:21:06.398Z,12.20
2023-04-20T00:22:06.375Z,12.60
2023-04-20T00:23:06.354Z,11.30
2023-04-20T00:24:06.370Z,14.00
2023-04-20T00:25:06.327Z,14.40
2023-04-20T00:26:06.324Z,11.90
2023-04-20T00:27:06.341Z,11.60
2023-04-20T00:28:06.279Z,12.30
2023-04-20T00:29:06.292Z,11.80
2023-04-20T00:30:06.291Z,12.20
2023-04-20T00:31:06.366Z,13.50
2023-04-20T00:32:06.275Z,13.60
2023-04-20T00:33:06.284Z,13.00
2023-04-20T00:34:06.231Z,13.70
2023-04-20T00:35:06.240Z,12.20
2023-04-20T00:36:06.226Z,12.40
2023-04-20T00:37:06.310Z,12.90
2023-04-20T00:38:06.184Z,12.40
2023-04-20T00:39:06.187Z,11.50
2023-04-20T00:40:06.166Z,12.70
2023-04-20T00:41:06.173Z,12.00
2023-04-20T00:42:06.161Z,11.80
2023-04-20T00:43:06.143Z,12.20
2023-04-20T00:44:06.137Z,13.50
2023-04-20T00:45:06.128Z,12.50
2023-04-20T00:46:06.187Z,11.50
2023-04-20T00:47:06.144Z,12.60
2023-04-20T00:48:06.138Z,11.60
2023-04-20T00:49:06.085Z,11.70
2023-04-20T00:50:06.079Z,11.70
2023-04-20T00:51:06.071Z,12.40
2023-04-20T00:52:06.043Z,12.80
2023-04-20T00:53:06.033Z,13.70
2023-04-20T00:54:06.041Z,12.40
2023-04-20T00:55:06.047Z,12.80
2023-04-20T00:56:05.994Z,11.90
2023-04-20T00:57:06.014Z,13.30
2023-04-20T00:58:05.961Z,13.10
2023-04-20T00:59:05.970Z,13.90
2023-04-20T01:00:05.940Z,11.60
2023-04-20T01:01:05.979Z,12.70
2023-04-20T01:02:06.092Z,13.30
2023-04-20T01:03:06.057Z,13.00
2023-04-20T01:04:06.001Z,13.00
2023-04-20T01:05:05.926Z,12.20
2023-04-20T01:06:05.893Z,12.90
2023-04-20T01:07:05.932Z,11.80
2023-04-20T01:08:05.859Z,12.90
2023-04-20T01:09:05.887Z,12.80
2023-04-20T01:10:05.844Z,12.30
2023-04-20T01:11:05.851Z,13.90
2023-04-20T01:12:05.863Z,13.40
2023-04-20T01:13:05.848Z,12.10
2023-04-20T01:14:05.801Z,12.10
2023-04-20T01:15:05.819Z,11.90
2023-04-20T01:16:05.900Z,13.10
2023-04-20T01:17:05.809Z,11.50
2023-04-20T01:18:06.001Z,12.60
2023-04-20T01:19:05.772Z,12.00
2023-04-20T01:20:05.757Z,11.90
2023-04-20T01:21:05.764Z,11.60
2023-04-20T01:22:05.714Z,12.70
2023-04-20T01:23:05.757Z,13.90
2023-04-20T01:24:05.712Z,11.10
2023-04-20T01:25:05.770Z,11.20
2023-04-20T01:26:05.674Z,11.10
2023-04-20T01:27:05.689Z,11.70
2023-04-20T01:28:05.683Z,11.50
2023-04-20T01:29:05.681Z,12.50
2023-04-20T01:30:05.633Z,12.50
2023-04-20T01:31:05.677Z,11.90
2023-04-20T01:32:05.618Z,10.70
2023-04-20T01:33:05.660Z,12.10
2023-04-20T01:34:05.598Z,12.00
2023-04-20T01:35:05.619Z,12.30
2023-04-20T01:36:05.586Z,9.30
2023-04-20T01:37:05.585Z,11.30
2023-04-20T01:38:05.547Z,11.80
2023-04-20T01:39:05.583Z,11.30
2023-04-20T01:40:05.554Z,10.20
2023-04-20T01:41:05.564Z,12.00
2023-04-20T01:42:05.552Z,10.20
2023-04-20T01:43:05.508Z,11.30
2023-04-20T01:44:05.542Z,10.20
2023-04-20T01:45:05.489Z,10.40
2023-04-20T01:46:05.523Z,10.50
2023-04-20T01:47:05.458Z,10.30
2023-04-20T01:48:05.537Z,10.00
2023-04-20T01:49:05.453Z,10.80
2023-04-20T01:50:05.466Z,10.40
2023-04-20T01:51:05.410Z,11.40
2023-04-20T01:52:05.496Z,11.40
2023-04-20T01:53:05.399Z,10.20
2023-04-20T01:54:05.428Z,10.30
2023-04-20T01:55:05.400Z,11.40
2023-04-20T01:56:05.394Z,8.70
2023-04-20T01:57:05.359Z,11.70
2023-04-20T01:58:05.386Z,11.80
2023-04-20T01:59:05.362Z,9.50
2023-04-20T02:00:05.360Z,10.00
2023-04-20T02:01:05.321Z,10.60
2023-04-20T02:02:05.398Z,10.70
2023-04-20T02:03:05.495Z,11.90
2023-04-20T02:04:05.380Z,11.60
2023-04-20T02:05:05.270Z,11.10
2023-04-20T02:06:05.285Z,10.10
2023-04-20T02:07:05.256Z,11.10
2023-04-20T02:08:05.259Z,9.40
2023-04-20T02:09:05.245Z,10.20
2023-04-20T02:10:05.310Z,11.20
2023-04-20T02:11:05.216Z,8.70
2023-04-20T02:12:05.231Z,9.70
2023-04-20T02:13:05.188Z,13.50
2023-04-20T02:14:05.204Z,12.90
2023-04-20T02:15:05.177Z,10.70
2023-04-20T02:16:05.187Z,11.90
2023-04-20T02:17:05.181Z,12.00
2023-04-20T02:18:05.228Z,10.40
2023-04-20T02:19:05.127Z,10.40
2023-04-20T02:20:05.182Z,11.90
2023-04-20T02:21:05.098Z,12.00
2023-04-20T02:22:05.120Z,10.20
2023-04-20T02:23:05.090Z,11.20
2023-04-20T02:24:05.123Z,11.70
2023-04-20T02:25:05.082Z,10.20
2023-04-20T02:26:05.072Z,10.00
2023-04-20T02:27:05.036Z,12.30
2023-04-20T02:28:05.059Z,13.30
2023-04-20T02:29:05.015Z,13.40
2023-04-20T02:30:05.044Z,11.00
2023-04-20T02:31:05.031Z,11.20
2023-04-20T02:32:05.006Z,10.40
2023-04-20T02:33:05.083Z,12.50
2023-04-20T02:34:04.992Z,12.20
2023-04-20T02:35:06.626Z,12.00
2023-04-20T02:36:04.981Z,11.70
2023-04-20T02:37:04.942Z,12.10
2023-04-20T02:38:04.948Z,13.40
2023-04-20T02:39:04.913Z,12.40
2023-04-20T02:40:05.018Z,11.50
2023-04-20T02:41:04.890Z,12.70
2023-04-20T02:42:04.904Z,11.60
2023-04-20T02:43:04.937Z,12.50
2023-04-20T02:44:04.889Z,12.50
2023-04-20T02:45:04.864Z,11.70
2023-04-20T02:46:05.088Z,12.10
2023-04-20T02:47:04.851Z,12.10
2023-04-20T02:48:04.846Z,12.70
2023-04-20T02:49:04.844Z,13.50
2023-04-20T02:50:04.828Z,13.20
2023-04-20T02:51:05.060Z,13.60
2023-04-20T02:52:04.807Z,13.20
2023-04-20T02:53:04.774Z,12.70
2023-04-20T02:54:04.783Z,13.90
2023-04-20T02:55:04.750Z,13.10
2023-04-20T02:56:04.772Z,12.40
2023-04-20T02:57:04.734Z,12.50
2023-04-20T02:58:04.749Z,14.50
2023-04-20T02:59:04.788Z,15.80
2023-04-20T03:00:04.724Z,14.30
2023-04-20T03:01:04.717Z,14.00
2023-04-20T03:02:04.788Z,13.80
2023-04-20T03:03:04.770Z,13.70
2023-04-20T03:04:04.929Z,12.80
2023-04-20T03:05:04.648Z,13.20
2023-04-20T03:06:04.661Z,15.70
2023-04-20T03:07:04.639Z,12.30
2023-04-20T03:08:04.646Z,15.40
2023-04-20T03:09:04.606Z,16.00
2023-04-20T03:10:04.615Z,13.60
2023-04-20T03:11:04.586Z,15.10
2023-04-20T03:12:04.634Z,11.90
2023-04-20T03:13:04.571Z,14.40
2023-04-20T03:14:04.583Z,14.80
2023-04-20T03:15:04.629Z,13.20
2023-04-20T03:16:04.574Z,13.70
2023-04-20T03:17:04.528Z,15.50
2023-04-20T03:18:04.535Z,13.20
2023-04-20T03:19:04.527Z,13.70
2023-04-20T03:20:04.490Z,14.20
2023-04-20T03:21:04.497Z,14.60
2023-04-20T03:22:04.460Z,14.20
2023-04-20T03:23:04.455Z,12.80
2023-04-20T03:24:04.454Z,13.50
2023-04-20T03:25:04.441Z,13.50
2023-04-20T03:26:04.406Z,13.60
2023-04-20T03:27:04.435Z,14.20
2023-04-20T03:28:04.378Z,12.30
2023-04-20T03:29:04.407Z,13.30
2023-04-20T03:30:04.382Z,14.10
2023-04-20T03:31:04.376Z,16.60
2023-04-20T03:32:04.429Z,16.60
2023-04-20T03:33:04.384Z,18.30
2023-04-20T03:34:04.322Z,17.20
2023-04-20T03:35:04.332Z,15.90
2023-04-20T03:36:04.324Z,17.00
2023-04-20T03:37:04.316Z,18.30
2023-04-20T03:38:04.277Z,18.30
2023-04-20T03:39:04.300Z,19.40
2023-04-20T03:40:04.319Z,17.10
2023-04-20T03:41:04.272Z,18.00
2023-04-20T03:42:04.264Z,16.70
2023-04-20T03:43:04.247Z,15.80
2023-04-20T03:44:04.242Z,17.80
2023-04-20T03:45:04.219Z,17.90
2023-04-20T03:46:04.222Z,16.90
2023-04-20T03:47:04.215Z,16.00
2023-04-20T03:48:04.264Z,15.60
2023-04-20T03:49:04.205Z,15.10
2023-04-20T03:50:04.169Z,18.00
2023-04-20T03:51:04.173Z,18.10
2023-04-20T03:52:04.137Z,18.90
2023-04-20T03:53:04.142Z,15.50
2023-04-20T03:54:04.137Z,15.60
2023-04-20T03:55:04.176Z,16.20
2023-04-20T03:56:04.112Z,15.40
2023-04-20T03:57:04.102Z,15.10
2023-04-20T03:58:04.070Z,16.00
2023-04-20T03:59:04.101Z,16.40
2023-04-20T04:00:04.069Z,16.10
2023-04-20T04:01:04.059Z,14.10
2023-04-20T04:02:04.081Z,13.90
2023-04-20T04:03:04.200Z,13.30
2023-04-20T04:04:04.261Z,13.30
2023-04-20T04:05:04.119Z,14.70
2023-04-20T04:06:04.016Z,14.30
2023-04-20T04:07:04.009Z,12.80
2023-04-20T04:08:03.977Z,13.70
2023-04-20T04:09:03.972Z,13.20
2023-04-20T04:10:03.964Z,13.90
2023-04-20T04:11:03.984Z,14.10
2023-04-20T04:12:03.946Z,13.30
2023-04-20T04:13:03.957Z,15.20
2023-04-20T04:14:03.912Z,13.50
2023-04-20T04:15:03.914Z,12.10
2023-04-20T04:16:03.888Z,12.90
2023-04-20T04:17:03.987Z,15.50
2023-04-20T04:18:04.027Z,13.60
2023-04-20T04:19:03.897Z,12.40
2023-04-20T04:20:03.846Z,14.20
2023-04-20T04:21:03.992Z,12.20
2023-04-20T04:22:03.846Z,12.00
2023-04-20T04:23:03.834Z,12.30
2023-04-20T04:24:03.817Z,12.30
2023-04-20T04:25:03.813Z,12.90
2023-04-20T04:26:03.783Z,13.30
2023-04-20T04:27:03.792Z,13.40
2023-04-20T04:28:03.760Z,12.30
2023-04-20T04:29:03.773Z,12.10
2023-04-20T04:30:03.765Z,11.40
2023-04-20T04:31:03.823Z,12.00
2023-04-20T04:32:03.728Z,12.00
2023-04-20T04:33:03.773Z,14.20
2023-04-20T04:34:03.701Z,12.60
2023-04-20T04:35:03.738Z,11.70
2023-04-20T04:36:03.780Z,11.50
2023-04-20T04:37:03.699Z,13.30
2023-04-20T04:38:03.660Z,11.90
2023-04-20T04:39:03.669Z,12.80
2023-04-20T04:40:04.468Z,12.70
2023-04-20T04:41:03.650Z,13.80
2023-04-20T04:42:04.897Z,12.10
2023-04-20T04:43:03.628Z,12.60
2023-04-20T04:44:03.637Z,12.70
2023-04-20T04:45:03.610Z,13.10
2023-04-20T04:46:03.608Z,12.60
2023-04-20T04:47:03.586Z,13.50
2023-04-20T04:48:03.631Z,13.60
2023-04-20T04:49:03.589Z,12.90
2023-04-20T04:50:03.619Z,12.90
2023-04-20T04:51:03.546Z,13.80
2023-04-20T04:52:03.522Z,13.40
2023-04-20T04:53:03.520Z,13.80
2023-04-20T04:54:03.516Z,12.30
2023-04-20T04:55:03.522Z,13.70
2023-04-20T04:56:03.470Z,14.40
2023-04-20T04:57:03.503Z,12.90
2023-04-20T04:58:03.450Z,12.50
2023-04-20T04:59:03.482Z,13.80
2023-04-20T05:00:03.448Z,13.40
2023-04-20T05:01:03.454Z,14.00
2023-04-20T05:02:03.502Z,12.20
2023-04-20T05:03:03.519Z,12.90
2023-04-20T05:04:03.546Z,13.50
2023-04-20T05:05:03.395Z,14.20
2023-04-20T05:06:03.400Z,12.70
2023-04-20T05:07:03.397Z,14.40
2023-04-20T05:08:03.383Z,13.30
2023-04-20T05:09:03.356Z,11.90
2023-04-20T05:10:03.337Z,12.10
2023-04-20T05:11:03.339Z,14.20
2023-04-20T05:12:03.321Z,11.80
2023-04-20T05:13:03.332Z,13.20
2023-04-20T05:14:03.277Z,11.90
2023-04-20T05:15:03.309Z,13.10
2023-04-20T05:16:03.305Z,12.60
2023-04-20T05:17:03.275Z,12.90
2023-04-20T05:18:03.361Z,13.90
2023-04-20T05:19:03.251Z,13.40
2023-04-20T05:20:03.226Z,13.80
2023-04-20T05:21:03.238Z,14.20
2023-04-20T05:22:03.194Z,12.70
2023-04-20T05:23:03.227Z,11.40
2023-04-20T05:24:03.244Z,12.70
2023-04-20T05:25:03.194Z,12.70
2023-04-20T05:26:03.168Z,12.10
2023-04-20T05:27:03.175Z,13.60
2023-04-20T05:28:03.152Z,12.90
2023-04-20T05:29:03.147Z,11.00
2023-04-20T05:30:16.706Z,12.40
2023-04-20T05:31:03.137Z,12.10
2023-04-20T05:32:03.134Z,13.30
2023-04-20T05:33:03.165Z,12.70
2023-04-20T05:34:03.100Z,12.00
2023-04-20T05:35:03.137Z,12.20
2023-04-20T05:36:03.103Z,12.30
2023-04-20T05:37:03.068Z,12.50
2023-04-20T05:38:03.035Z,11.70
2023-04-20T05:39:03.047Z,12.90
2023-04-20T05:40:03.019Z,12.30
2023-04-20T05:41:03.075Z,12.70
2023-04-20T05:42:03.381Z,12.30
2023-04-20T05:43:03.014Z,12.40
2023-04-20T05:44:02.964Z,14.20
2023-04-20T05:45:02.992Z,12.40
2023-04-20T05:46:02.995Z,11.80
2023-04-20T05:47:03.001Z,11.90
2023-04-20T05:48:03.035Z,13.40
2023-04-20T05:49:02.948Z,13.30
2023-04-20T05:50:02.925Z,12.00
2023-04-20T05:51:02.973Z,12.30
2023-04-20T05:52:02.920Z,12.90
2023-04-20T05:53:02.934Z,13.90
2023-04-20T05:54:02.896Z,13.80
2023-04-20T05:55:02.908Z,13.80
2023-04-20T05:56:02.867Z,12.90
2023-04-20T05:57:02.899Z,12.50
2023-04-20T05:58:02.856Z,12.70
2023-04-20T05:59:02.811Z,13.40
2023-04-20T06:00:02.873Z,13.60
2023-04-20T06:01:02.896Z,13.90
2023-04-20T06:02:02.911Z,12.90
2023-04-20T06:03:02.931Z,13.30
2023-04-20T06:04:02.983Z,12.40
2023-04-20T06:05:02.870Z,12.40
2023-04-20T06:06:02.811Z,13.40
2023-04-20T06:07:02.747Z,12.90
2023-04-20T06:08:02.750Z,14.00
2023-04-20T06:09:02.716Z,13.70
2023-04-20T06:10:02.727Z,12.80
2023-04-20T06:11:02.704Z,14.00
2023-04-20T06:12:02.739Z,13.80
2023-04-20T06:13:02.680Z,14.90
2023-04-20T06:14:02.713Z,15.80
2023-04-20T06:15:02.656Z,14.40
2023-04-20T06:16:02.737Z,13.50
2023-04-20T06:17:02.648Z,13.40
2023-04-20T06:18:02.692Z,15.10
2023-04-20T06:19:02.645Z,14.10
2023-04-20T06:20:02.649Z,14.00
2023-04-20T06:21:02.591Z,15.40
2023-04-20T06:22:02.603Z,15.10
2023-04-20T06:23:02.616Z,13.00
2023-04-20T06:24:02.608Z,12.80
2023-04-20T06:25:02.557Z,13.70
2023-04-20T06:26:02.599Z,13.50
2023-04-20T06:27:02.538Z,13.60
2023-04-20T06:28:02.546Z,13.40
2023-04-20T06:29:02.553Z,14.00
2023-04-20T06:30:02.557Z,13.40
2023-04-20T06:31:02.569Z,14.50
2023-04-20T06:32:02.501Z,13.60
2023-04-20T06:33:02.536Z,14.40
2023-04-20T06:34:02.540Z,14.50
2023-04-20T06:35:02.450Z,13.50
2023-04-20T06:36:02.492Z,13.40
2023-04-20T06:37:02.435Z,13.40
2023-04-20T06:38:02.467Z,14.00
2023-04-20T06:39:02.420Z,14.30
2023-04-20T06:40:02.409Z,14.30
2023-04-20T06:41:02.380Z,14.60
2023-04-20T06:42:02.432Z,14.00
2023-04-20T06:43:02.399Z,13.30
2023-04-20T06:44:02.396Z,13.50
2023-04-20T06:45:02.339Z,14.20
2023-04-20T06:46:02.381Z,14.50
2023-04-20T06:47:02.395Z,13.40
2023-04-20T06:48:02.379Z,14.20
2023-04-20T06:49:02.343Z,14.40
2023-04-20T06:50:02.354Z,13.60
2023-04-20T06:51:02.307Z,14.70
2023-04-20T06:52:02.297Z,13.40
2023-04-20T06:53:02.250Z,14.30
2023-04-20T06:54:02.313Z,13.40
2023-04-20T06:55:02.303Z,14.50
2023-04-20T06:56:02.249Z,16.30
2023-04-20T06:57:02.210Z,14.70
2023-04-20T06:58:02.246Z,13.30
2023-04-20T06:59:02.218Z,13.90
2023-04-20T07:00:02.267Z,14.90
2023-04-20T07:01:02.200Z,14.20
2023-04-20T07:02:02.528Z,13.70
2023-04-20T07:03:02.376Z,15.30
2023-04-20T07:04:02.359Z,15.10
2023-04-20T07:05:02.181Z,14.30
2023-04-20T07:06:02.161Z,13.30
2023-04-20T07:07:02.126Z,14.60
2023-04-20T07:08:02.128Z,15.50
2023-04-20T07:09:02.139Z,14.60
2023-04-20T07:10:02.096Z,14.30
2023-04-20T07:11:02.080Z,14.60
2023-04-20T07:12:02.113Z,13.80
2023-04-20T07:13:02.064Z,14.40
2023-04-20T07:14:02.054Z,14.00
2023-04-20T07:15:02.028Z,14.90
2023-04-20T07:16:02.145Z,14.30
2023-04-20T07:17:02.007Z,14.10
2023-04-20T07:18:02.238Z,13.80
2023-04-20T07:19:01.988Z,15.50
2023-04-20T07:20:02.060Z,16.60
2023-04-20T07:21:01.974Z,15.00
2023-04-20T07:22:01.977Z,14.60
2023-04-20T07:23:01.950Z,15.30
2023-04-20T07:24:01.976Z,14.90
2023-04-20T07:25:01.921Z,14.80
2023-04-20T07:26:01.932Z,14.80
2023-04-20T07:27:01.940Z,16.10
2023-04-20T07:28:01.924Z,14.10
2023-04-20T07:29:01.883Z,15.10
2023-04-20T07:30:02.125Z,14.80
2023-04-20T07:31:01.890Z,16.80
2023-04-20T07:32:01.934Z,16.20
2023-04-20T07:33:01.873Z,15.50
2023-04-20T07:34:01.863Z,15.80
2023-04-20T07:35:01.833Z,16.20
2023-04-20T07:36:01.879Z,16.60
2023-04-20T07:37:01.806Z,16.00
2023-04-20T07:38:01.816Z,15.40
2023-04-20T07:39:01.777Z,17.30
2023-04-20T07:40:01.811Z,17.10
2023-04-20T07:41:01.760Z,14.80
2023-04-20T07:42:01.822Z,14.70
2023-04-20T07:43:01.750Z,16.10
2023-04-20T07:44:01.765Z,18.30
2023-04-20T07:45:01.723Z,15.90
2023-04-20T07:46:02.119Z,14.10
2023-04-20T07:47:02.930Z,16.40
2023-04-20T07:48:01.767Z,15.30
2023-04-20T07:49:01.672Z,14.90
2023-04-20T07:50:01.764Z,17.30
2023-04-20T07:51:01.652Z,15.40
2023-04-20T07:52:15.024Z,16.20
2023-04-20T07:53:01.654Z,17.10
2023-04-20T07:54:01.686Z,18.30
2023-04-20T07:55:01.613Z,16.70
2023-04-20T07:56:01.622Z,17.90
2023-04-20T07:57:01.601Z,16.80
2023-04-20T07:58:01.613Z,17.00
2023-04-20T07:59:01.594Z,15.90
2023-04-20T08:00:01.639Z,16.40
2023-04-20T08:01:01.559Z,16.30
2023-04-20T08:02:01.783Z,16.60
2023-04-20T08:03:01.707Z,16.50
2023-04-20T08:04:01.977Z,18.00
2023-04-20T08:05:01.711Z,15.60
2023-04-20T08:06:01.687Z,16.70
2023-04-20T08:07:01.482Z,15.70
2023-04-20T08:08:01.525Z,16.90
2023-04-20T08:09:01.465Z,18.60
2023-04-20T08:10:01.496Z,19.10
2023-04-20T08:11:01.472Z,20.00
2023-04-20T08:12:01.479Z,20.30
2023-04-20T08:13:01.424Z,19.90
2023-04-20T08:14:01.469Z,23.10
2023-04-20T08:15:01.414Z,20.30
2023-04-20T08:16:01.426Z,22.20
2023-04-20T08:17:01.641Z,24.50
2023-04-20T08:18:01.446Z,26.90
2023-04-20T08:19:01.373Z,23.50
2023-04-20T08:20:01.393Z,17.80
2023-04-20T08:21:01.358Z,21.30
2023-04-20T08:22:02.261Z,21.90
2023-04-20T08:23:01.320Z,19.10
2023-04-20T08:24:01.480Z,22.00
2023-04-20T08:25:01.321Z,16.20
2023-04-20T08:26:01.331Z,16.30
2023-04-20T08:27:01.293Z,16.00
2023-04-20T08:28:01.772Z,15.20
2023-04-20T08:29:01.267Z,15.90
2023-04-20T08:30:01.371Z,15.60
2023-04-20T08:31:01.276Z,15.10
2023-04-20T08:32:01.345Z,15.40
2023-04-20T08:33:01.272Z,15.00
2023-04-20T08:34:01.292Z,13.90
2023-04-20T08:35:01.215Z,13.10
2023-04-20T08:36:01.231Z,13.80
2023-04-20T08:37:01.196Z,12.60
2023-04-20T08:38:01.191Z,13.10
2023-04-20T08:39:01.148Z,13.10
2023-04-20T08:40:01.222Z,12.20
2023-04-20T08:41:01.157Z,12.60
2023-04-20T08:42:01.169Z,11.40
2023-04-20T08:43:01.113Z,11.60
2023-04-20T08:44:01.135Z,11.70
2023-04-20T08:45:01.131Z,11.80
2023-04-20T08:46:01.182Z,10.60
2023-04-20T08:47:01.251Z,10.70
2023-04-20T08:48:01.177Z,11.60
2023-04-20T08:49:01.048Z,11.80
2023-04-20T08:50:01.085Z,12.20
2023-04-20T08:51:01.035Z,10.80
2023-04-20T08:52:01.051Z,13.10
2023-04-20T08:53:01.080Z,12.60
2023-04-20T08:54:01.051Z,12.00
2023-04-20T08:55:00.992Z,12.40
2023-04-20T08:56:00.993Z,13.80
2023-04-20T08:57:00.963Z,12.90
2023-04-20T08:58:01.004Z,14.50
2023-04-20T08:59:00.941Z,14.10
2023-04-20T09:00:00.982Z,14.00
2023-04-20T09:01:00.925Z,14.70
2023-04-20T09:02:01.029Z,13.60
2023-04-20T09:03:01.071Z,13.90
2023-04-20T09:04:01.012Z,14.70
2023-04-20T09:05:00.902Z,15.50
2023-04-20T09:06:00.953Z,13.80
2023-04-20T09:07:00.861Z,15.70
2023-04-20T09:08:00.870Z,14.70
2023-04-20T09:09:00.838Z,15.70
2023-04-20T09:10:00.940Z,15.10
2023-04-20T09:11:00.813Z,14.60
2023-04-20T09:12:00.869Z,19.30
2023-04-20T09:13:00.794Z,16.30
2023-04-20T09:14:00.823Z,16.00
2023-04-20T09:15:00.773Z,15.00
2023-04-20T09:16:00.868Z,14.70
2023-04-20T09:17:00.817Z,16.00
2023-04-20T09:18:00.806Z,15.30
2023-04-20T09:19:00.732Z,14.50
2023-04-20T09:20:00.752Z,16.90
2023-04-20T09:21:00.739Z,15.00
2023-04-20T09:22:00.723Z,14.30
2023-04-20T09:23:00.695Z,15.50
2023-04-20T09:24:00.731Z,15.40
2023-04-20T09:25:00.667Z,13.40
2023-04-20T09:26:00.684Z,14.20
2023-04-20T09:27:00.674Z,14.10
2023-04-20T09:28:00.661Z,14.70
2023-04-20T09:29:00.646Z,13.20
2023-04-20T09:30:00.668Z,14.50
2023-04-20T09:31:00.615Z,13.20
2023-04-20T09:32:00.632Z,13.40
2023-04-20T09:33:00.686Z,12.80
2023-04-20T09:34:00.613Z,13.40
2023-04-20T09:35:00.571Z,13.10
2023-04-20T09:36:01.550Z,13.30
2023-04-20T09:37:00.549Z,13.70
2023-04-20T09:38:00.561Z,12.80
2023-04-20T09:39:00.793Z,14.50
2023-04-20T09:40:00.534Z,12.90
2023-04-20T09:41:00.524Z,12.50
2023-04-20T09:42:00.532Z,12.60
2023-04-20T09:43:00.480Z,11.90
2023-04-20T09:44:00.489Z,11.80
2023-04-20T09:45:00.497Z,11.90
2023-04-20T09:46:00.494Z,12.70
2023-04-20T09:47:00.441Z,11.70
2023-04-20T09:48:00.487Z,11.40
2023-04-20T09:49:00.424Z,11.60
2023-04-20T09:50:10.297Z,11.40
2023-04-20T09:51:00.400Z,12.00
2023-04-20T09:52:00.432Z,12.10
2023-04-20T09:53:00.384Z,10.60
2023-04-20T09:54:00.427Z,12.10
2023-04-20T09:55:00.357Z,11.40
2023-04-20T09:56:00.380Z,11.60
2023-04-20T09:57:00.355Z,11.30
2023-04-20T09:58:00.351Z,10.50
2023-04-20T09:59:00.348Z,11.20
2023-04-20T10:00:00.353Z,10.80
2023-04-20T10:01:00.321Z,11.30
2023-04-20T10:02:00.469Z,10.50
2023-04-20T10:03:00.456Z,10.40
2023-04-20T10:04:00.483Z,10.60
2023-04-20T10:05:00.278Z,11.80
2023-04-20T10:06:00.293Z,10.80
2023-04-20T10:07:00.239Z,11.20
2023-04-20T10:08:00.236Z,10.90
2023-04-20T10:09:00.252Z,10.40
2023-04-20T10:10:00.237Z,10.50
2023-04-20T10:11:00.192Z,10.70
2023-04-20T10:12:00.229Z,10.90
2023-04-20T10:13:00.175Z,10.70
2023-04-20T10:14:00.224Z,11.70
2023-04-20T10:15:00.188Z,10.70
2023-04-20T10:16:00.146Z,11.60
2023-04-20T10:17:00.327Z,11.10
2023-04-20T10:18:00.222Z,10.70
2023-04-20T10:19:00.247Z,11.40
2023-04-20T10:20:00.183Z,11.60
2023-04-20T10:21:00.116Z,11.30
2023-04-20T10:22:00.129Z,11.10
2023-04-20T10:23:00.086Z,11.30
2023-04-20T10:24:00.109Z,10.80
2023-04-20T10:25:00.065Z,10.50
2023-04-20T10:26:00.071Z,11.30
2023-04-20T10:27:00.048Z,12.00
2023-04-20T10:28:00.039Z,11.90
2023-04-20T10:29:00.030Z,11.80
2023-04-20T10:30:00.045Z,11.20
2023-04-20T10:31:00.070Z,10.90
2023-04-20T10:31:59.981Z,11.20
2023-04-20T10:33:00.028Z,10.80
2023-04-20T10:33:59.961Z,12.70
2023-04-20T10:34:59.996Z,11.60
2023-04-20T10:35:59.938Z,11.50
2023-04-20T10:36:59.944Z,10.90
2023-04-20T10:37:59.916Z,10.60
2023-04-20T10:38:59.933Z,11.30
2023-04-20T10:39:59.909Z,11.50
2023-04-20T10:40:59.897Z,10.90
2023-04-20T10:41:59.919Z,10.60
2023-04-20T10:42:59.887Z,11.00
2023-04-20T10:43:59.837Z,11.10
2023-04-20T10:44:59.857Z,12.00
2023-04-20T10:45:59.882Z,11.40
2023-04-20T10:46:59.833Z,11.00
2023-04-20T10:47:59.896Z,11.70
2023-04-20T10:48:59.806Z,12.20
2023-04-20T10:49:59.809Z,10.60
2023-04-20T10:50:59.787Z,12.00
2023-04-20T10:51:59.766Z,11.50
2023-04-20T10:52:59.762Z,12.00
2023-04-20T10:53:59.756Z,11.80
2023-04-20T10:54:59.777Z,10.90
2023-04-20T10:55:59.734Z,13.20
2023-04-20T10:56:59.749Z,11.50
2023-04-20T10:57:59.717Z,11.20
2023-04-20T10:59:59.681Z,11.20
2023-04-20T11:00:59.715Z,11.30
2023-04-20T11:01:59.839Z,12.30
2023-04-20T11:02:59.787Z,11.90
2023-04-20T11:03:59.675Z,11.40
2023-04-20T11:04:59.669Z,12.10
2023-04-20T11:05:59.641Z,12.50
2023-04-20T11:06:59.617Z,13.00
2023-04-20T11:07:59.629Z,13.30
2023-04-20T11:08:59.605Z,12.30
2023-04-20T11:09:59.565Z,12.40
2023-04-20T11:10:59.580Z,12.80
2023-04-20T11:11:59.560Z,12.90
2023-04-20T11:12:59.560Z,12.40
2023-04-20T11:13:59.566Z,13.50
2023-04-20T11:14:59.532Z,12.70
2023-04-20T11:15:59.519Z,13.60
2023-04-20T11:16:59.608Z,14.00
2023-04-20T11:17:59.577Z,13.10
2023-04-20T11:18:59.514Z,13.50
2023-04-20T11:19:59.487Z,12.50
2023-04-20T11:20:59.483Z,13.10
2023-04-20T11:21:59.477Z,13.50
2023-04-20T11:22:59.595Z,12.90
2023-04-20T11:23:59.424Z,12.80
2023-04-20T11:24:59.432Z,12.40
2023-04-20T11:25:59.459Z,14.40
2023-04-20T11:26:59.406Z,13.70
2023-04-20T11:27:59.385Z,13.20
2023-04-20T11:28:59.405Z,13.80
2023-04-20T11:29:59.391Z,14.90
2023-04-20T11:30:59.371Z,14.30
2023-04-20T11:31:59.492Z,14.70
2023-04-20T11:32:59.384Z,15.20
2023-04-20T11:33:59.320Z,14.90
2023-04-20T11:35:06.035Z,15.50
2023-04-20T11:35:59.325Z,14.80
2023-04-20T11:36:59.315Z,14.70
2023-04-20T11:37:59.296Z,16.20
2023-04-20T11:38:59.290Z,15.30
2023-04-20T11:39:59.279Z,15.90
2023-04-20T11:40:59.267Z,14.30
2023-04-20T11:41:59.231Z,15.50
2023-04-20T11:42:59.257Z,16.20
2023-04-20T11:43:59.246Z,14.30
2023-04-20T11:44:59.215Z,15.00
2023-04-20T11:45:59.243Z,15.00
2023-04-20T11:46:59.201Z,13.80
2023-04-20T11:47:59.217Z,14.60
2023-04-20T11:48:59.174Z,14.40
2023-04-20T11:49:59.180Z,14.90
2023-04-20T11:50:59.244Z,14.50
2023-04-20T11:51:59.171Z,14.80
2023-04-20T11:52:59.145Z,13.70
2023-04-20T11:53:59.121Z,14.10
2023-04-20T11:54:59.132Z,14.40
2023-04-20T11:55:59.122Z,14.20
2023-04-20T11:56:59.127Z,14.00
2023-04-20T11:57:59.065Z,14.40
2023-04-20T11:58:59.084Z,13.80
2023-04-20T11:59:59.063Z,14.70
2023-04-20T12:00:59.059Z,14.30
2023-04-20T12:01:59.079Z,15.60
2023-04-20T12:02:59.120Z,14.50
2023-04-20T12:03:59.309Z,14.60
2023-04-20T12:04:59.094Z,15.10
2023-04-20T12:05:58.991Z,14.70
2023-04-20T12:06:58.990Z,14.50
2023-04-20T12:07:58.986Z,14.10
2023-04-20T12:08:58.968Z,14.70
2023-04-20T12:09:58.934Z,14.40
2023-04-20T12:10:58.979Z,14.00
2023-04-20T12:11:58.932Z,14.30
2023-04-20T12:12:58.939Z,14.20
2023-04-20T12:13:58.917Z,16.90
2023-04-20T12:14:58.912Z,15.00
2023-04-20T12:15:58.929Z,14.30
2023-04-20T12:16:58.918Z,16.00
2023-04-20T12:17:59.020Z,15.90
2023-04-20T12:18:58.872Z,16.50
2023-04-20T12:19:58.856Z,15.90
2023-04-20T12:20:58.843Z,15.60
2023-04-20T12:21:58.809Z,16.70
2023-04-20T12:22:59.118Z,15.80
2023-04-20T12:23:58.790Z,15.60
2023-04-20T12:24:58.807Z,16.20
2023-04-20T12:25:58.779Z,13.90
2023-04-20T12:26:58.780Z,14.30
2023-04-20T12:27:58.749Z,15.00
2023-04-20T12:28:58.758Z,14.70
2023-04-20T12:29:58.731Z,15.30
2023-04-20T12:30:58.754Z,14.60
2023-04-20T12:31:58.867Z,14.70
2023-04-20T12:32:58.726Z,15.00
2023-04-20T12:33:58.690Z,15.00
2023-04-20T12:34:58.691Z,14.10
2023-04-20T12:35:58.675Z,13.60
2023-04-20T12:36:58.678Z,14.40
2023-04-20T12:37:58.659Z,14.40
2023-04-20T12:38:58.659Z,14.90
2023-04-20T12:39:58.614Z,14.20
2023-04-20T12:40:58.624Z,15.20
2023-04-20T12:41:58.620Z,14.10
2023-04-20T12:42:58.687Z,16.10
2023-04-20T12:43:58.607Z,14.60
2023-04-20T12:44:58.597Z,15.10
2023-04-20T12:45:58.590Z,15.40
2023-04-20T12:46:58.659Z,14.70
2023-04-20T12:48:00.389Z,15.00
2023-04-20T12:48:58.549Z,15.00
2023-04-20T12:49:58.556Z,15.40
2023-04-20T12:50:58.535Z,14.80
2023-04-20T12:51:58.486Z,13.80
2023-04-20T12:52:58.609Z,16.50